»·PEaware :: GTH107 KMCC-KONT

GTH107 :: KMCC-KONT

FLIGHT INFORMATION

Flight Status: Arrived
Operator: Unknown
More flights by this operator :: More flights under this callsign
Pilot: Peter M. (9586)
Aircraft: DEHAVILLAND DASH 8 400
(DH8D)
More flights by this aircraft type
Origin: KMCC McClellan
United States
Destination: KONT Ontario Intl
United States
More flights between these airports :: More routes between these airports
Route: +GLRNO GLRNO2
File this flight plan on PilotEdge
Remarks:
Altitude:
(Current/Filed)
25,000ft
Speed:
(Current/Filed)
350kts
Departed: 23-Feb-19 08:16 PM
Arrived: 23-Feb-19 09:44 PM
Distance/Time
Traveled:
332nm/1:28
Distance/Time
To Go:
Arrived

Flight Plot

Page will automatically refresh every two minutes.

Flight plan parsing failed; only flown route is shown


Map Options




Map Legend


Flown Route
Filed Route
Departure Airport
Arrival Airport
Navaid (VOR, NDB)
Fix

Horizontal Profiles

Position Reports

Time Latitude Longitude Heading Altitude Ground
Speed
23-Feb-19 19:55 38.658392 -121.394505 49 82ft 0kts
23-Feb-19 19:55 38.658392 -121.394505 49 82ft 0kts
23-Feb-19 19:57 38.658392 -121.394505 49 82ft 0kts
23-Feb-19 19:58 38.658392 -121.394505 49 82ft 0kts
23-Feb-19 19:58 38.658392 -121.394505 49 82ft 0kts
23-Feb-19 19:59 38.658392 -121.394505 49 82ft 0kts
23-Feb-19 20:00 38.658392 -121.394505 49 82ft 0kts
23-Feb-19 20:02 38.658392 -121.394505 49 82ft 0kts
23-Feb-19 20:02 38.658392 -121.394505 49 82ft 0kts
23-Feb-19 20:03 38.658392 -121.394505 49 82ft 0kts
23-Feb-19 20:04 38.658392 -121.394505 49 82ft 0kts
23-Feb-19 20:05 38.658392 -121.394505 49 82ft 0kts
23-Feb-19 20:06 38.658392 -121.394505 49 82ft 0kts
23-Feb-19 20:07 38.658392 -121.394505 49 82ft 0kts
23-Feb-19 20:08 38.658392 -121.394505 49 82ft 0kts
23-Feb-19 20:09 38.658392 -121.394505 49 82ft 0kts
23-Feb-19 20:10 38.658392 -121.394505 49 82ft 0kts
23-Feb-19 20:11 38.658392 -121.394505 49 82ft 0kts
23-Feb-19 20:12 38.658414 -121.394496 29 82ft 1kts
23-Feb-19 20:13 38.661063 -121.395019 199 82ft 0kts
23-Feb-19 20:14 38.659737 -121.397696 307 82ft 7kts
23-Feb-19 20:15 38.667102 -121.397903 358 82ft 43kts
23-Feb-19 20:16 38.674326 -121.397853 0 82ft 26kts
23-Feb-19 20:17 38.682071 -121.398322 279 82ft 12kts
23-Feb-19 20:18 38.682089 -121.399354 269 82ft 0kts
23-Feb-19 20:19 38.682089 -121.399354 269 82ft 0kts
23-Feb-19 20:20 38.682089 -121.399354 269 82ft 0kts
23-Feb-19 20:21 38.681803 -121.400447 212 82ft 11kts
23-Feb-19 20:22 38.674205 -121.400564 179 82ft 118kts
23-Feb-19 20:23 38.644786 -121.378417 55 1404ft 180kts
23-Feb-19 20:24 38.638738 -121.388625 170 2321ft 160kts
23-Feb-19 20:25 38.603213 -121.421672 235 1902ft 152kts
23-Feb-19 20:26 38.563215 -121.467868 213 2004ft 210kts
23-Feb-19 20:27 38.513272 -121.505389 207 1995ft 205kts
23-Feb-19 20:28 38.462858 -121.538141 195 1991ft 202kts
23-Feb-19 20:29 38.413265 -121.513095 143 1996ft 199kts
23-Feb-19 20:30 38.377727 -121.476578 137 2735ft 215kts
23-Feb-19 20:31 38.328611 -121.420650 136 4255ft 256kts
23-Feb-19 20:32 38.273418 -121.357089 137 5750ft 274kts
23-Feb-19 20:33 38.217550 -121.292145 140 7233ft 281kts
23-Feb-19 20:34 38.158454 -121.226133 141 8732ft 287kts
23-Feb-19 20:35 38.098789 -121.159016 140 10226ft 291kts
23-Feb-19 20:36 38.037377 -121.089704 140 11728ft 298kts
23-Feb-19 20:37 37.975827 -121.020204 140 13215ft 299kts
23-Feb-19 20:38 37.914047 -120.950674 140 14711ft 295kts
23-Feb-19 20:39 37.853121 -120.882263 141 16204ft 290kts
23-Feb-19 20:40 37.793828 -120.815837 141 17683ft 283kts
23-Feb-19 20:41 37.735774 -120.750945 141 19162ft 276kts
23-Feb-19 20:42 37.679491 -120.688162 141 20633ft 267kts
23-Feb-19 20:43 37.624789 -120.627295 141 22109ft 254kts
23-Feb-19 20:44 37.573027 -120.569760 142 23566ft 238kts
23-Feb-19 20:45 37.524359 -120.515766 141 24914ft 234kts
23-Feb-19 20:46 37.467215 -120.453050 140 25009ft 314kts
23-Feb-19 20:47 37.397333 -120.375518 140 25000ft 357kts
23-Feb-19 20:48 37.323333 -120.293953 141 24996ft 359kts
23-Feb-19 20:49 37.249513 -120.212964 141 24994ft 355kts
23-Feb-19 20:50 37.176411 -120.132857 141 24995ft 346kts
23-Feb-19 20:51 37.115652 -120.066514 140 25002ft 342kts
23-Feb-19 20:52 37.049715 -119.994701 141 24996ft 348kts
23-Feb-19 20:53 36.976899 -119.915506 141 24996ft 351kts
23-Feb-19 20:54 36.904058 -119.836525 141 24996ft 353kts
23-Feb-19 20:55 36.819277 -119.780758 163 24997ft 346kts
23-Feb-19 20:56 36.731787 -119.736362 159 24996ft 349kts
23-Feb-19 20:57 36.642721 -119.689341 160 24996ft 349kts
23-Feb-19 20:58 36.554096 -119.643544 160 24996ft 350kts
23-Feb-19 20:59 36.465277 -119.597517 160 24996ft 350kts
23-Feb-19 21:00 36.376718 -119.551794 160 24996ft 350kts
23-Feb-19 21:01 36.288787 -119.506509 160 24996ft 350kts
23-Feb-19 21:02 36.200683 -119.461235 160 24996ft 350kts
23-Feb-19 21:03 36.112050 -119.415805 160 24996ft 350kts
23-Feb-19 21:04 36.023692 -119.370624 160 24996ft 350kts
23-Feb-19 21:05 35.939494 -119.313010 147 24995ft 355kts
23-Feb-19 21:06 35.859839 -119.244395 147 24996ft 355kts
23-Feb-19 21:07 35.780211 -119.176348 148 24996ft 355kts
23-Feb-19 21:08 35.700369 -119.108292 148 24996ft 355kts
23-Feb-19 21:09 35.620802 -119.040638 148 24996ft 355kts
23-Feb-19 21:10 35.541126 -118.973059 148 24996ft 355kts
23-Feb-19 21:11 35.460964 -118.905234 148 24996ft 355kts
23-Feb-19 21:12 35.381448 -118.838121 148 24996ft 355kts
23-Feb-19 21:13 35.302071 -118.771289 148 24996ft 355kts
23-Feb-19 21:14 35.222250 -118.704247 148 24996ft 355kts
23-Feb-19 21:15 35.143496 -118.638260 148 24996ft 355kts
23-Feb-19 21:16 35.063385 -118.571299 148 24996ft 355kts
23-Feb-19 21:17 34.983810 -118.504945 148 24996ft 355kts
23-Feb-19 21:18 34.904152 -118.438683 148 24996ft 355kts
23-Feb-19 21:19 34.824501 -118.372585 148 24996ft 355kts
23-Feb-19 21:20 34.752779 -118.294101 135 24981ft 360kts
23-Feb-19 21:21 34.683723 -118.206697 136 23516ft 378kts
23-Feb-19 21:22 34.613923 -118.118694 136 22988ft 358kts
23-Feb-19 21:23 34.564510 -118.017288 101 21791ft 365kts
23-Feb-19 21:24 34.545886 -117.899383 103 20614ft 361kts
23-Feb-19 21:25 34.524372 -117.785389 103 19228ft 341kts
23-Feb-19 21:26 34.505902 -117.682448 103 17497ft 303kts
23-Feb-19 21:27 34.486274 -117.590380 113 15551ft 281kts
23-Feb-19 21:28 34.457111 -117.505526 116 13270ft 286kts
23-Feb-19 21:29 34.402073 -117.447075 153 10840ft 270kts
23-Feb-19 21:30 34.339859 -117.402783 153 8411ft 272kts
23-Feb-19 21:31 34.282647 -117.361490 153 7889ft 207kts
23-Feb-19 21:32 34.235349 -117.328685 170 7871ft 183kts
23-Feb-19 21:33 34.193848 -117.297700 132 8153ft 212kts
23-Feb-19 21:34 34.143515 -117.246418 166 7592ft 202kts
23-Feb-19 21:35 34.084414 -117.216675 180 6196ft 275kts
23-Feb-19 21:36 34.044966 -117.268112 262 5895ft 211kts
23-Feb-19 21:37 34.040566 -117.334036 271 5317ft 188kts
23-Feb-19 21:38 34.045548 -117.391727 281 3703ft 179kts
23-Feb-19 21:39 34.053715 -117.450497 278 2953ft 163kts
23-Feb-19 21:40 34.055814 -117.498949 270 2408ft 148kts
23-Feb-19 21:41 34.056783 -117.549847 273 1409ft 153kts
23-Feb-19 21:42 34.056821 -117.596766 270 952ft 102kts
23-Feb-19 21:43 34.057582 -117.603143 356 951ft 0kts
23-Feb-19 21:44 34.057933 -117.605742 270 951ft 12kts
23-Feb-19 21:45 34.059586 -117.606787 26 951ft 13kts

Navigation Log

Ident Type
Flight plan parsing failed, navigation log unavailable